createdAt,value
2018-09-14T00:00:41.171Z,99.99
2018-09-14T00:01:41.197Z,99.99
2018-09-14T00:02:41.258Z,99.99
2018-09-14T00:03:41.234Z,99.99
2018-09-14T00:04:41.263Z,99.99
2018-09-14T00:05:41.281Z,99.99
2018-09-14T00:06:41.303Z,99.99
2018-09-14T00:07:41.331Z,99.99
2018-09-14T00:08:41.347Z,99.99
2018-09-14T00:09:41.375Z,99.99
2018-09-14T00:10:41.393Z,99.99
2018-09-14T00:11:41.412Z,99.99
2018-09-14T00:12:41.431Z,99.99
2018-09-14T00:13:41.463Z,99.99
2018-09-14T00:14:41.477Z,99.99
2018-09-14T00:15:41.497Z,99.99
2018-09-14T00:16:41.522Z,99.99
2018-09-14T00:17:41.547Z,99.99
2018-09-14T00:18:41.564Z,99.99
2018-09-14T00:19:41.587Z,99.99
2018-09-14T00:20:41.609Z,99.99
2018-09-14T00:21:41.629Z,99.99
2018-09-14T00:22:41.658Z,99.99
2018-09-14T00:23:41.676Z,99.99
2018-09-14T00:24:41.700Z,99.99
2018-09-14T00:25:41.732Z,99.99
2018-09-14T00:26:41.740Z,99.99
2018-09-14T00:27:41.761Z,99.99
2018-09-14T00:28:41.791Z,99.99
2018-09-14T00:29:41.814Z,99.99
2018-09-14T00:30:41.833Z,99.99
2018-09-14T00:31:41.853Z,99.99
2018-09-14T00:32:41.872Z,99.99
2018-09-14T00:33:41.891Z,99.99
2018-09-14T00:34:41.918Z,99.99
2018-09-14T00:35:41.936Z,99.99
2018-09-14T00:36:41.960Z,99.99
2018-09-14T00:37:41.980Z,99.99
2018-09-14T00:38:42.003Z,99.99
2018-09-14T00:39:42.028Z,99.99
2018-09-14T00:40:42.052Z,99.99
2018-09-14T00:41:42.086Z,99.99
2018-09-14T00:42:42.094Z,99.99
2018-09-14T00:43:42.114Z,99.99
2018-09-14T00:44:42.140Z,99.99
2018-09-14T00:45:42.158Z,99.99
2018-09-14T00:46:42.183Z,99.99
2018-09-14T00:47:42.198Z,99.99
2018-09-14T00:48:42.229Z,99.99
2018-09-14T00:49:42.247Z,99.99
2018-09-14T00:50:42.265Z,99.99
2018-09-14T00:51:42.288Z,99.99
2018-09-14T00:52:42.315Z,99.99
2018-09-14T00:53:42.332Z,99.99
2018-09-14T00:54:42.351Z,99.99
2018-09-14T00:55:42.371Z,99.99
2018-09-14T00:56:42.395Z,99.99
2018-09-14T00:57:42.421Z,99.99
2018-09-14T00:58:42.441Z,99.99
2018-09-14T00:59:42.461Z,99.99
2018-09-14T01:00:42.485Z,99.99
2018-09-14T01:01:42.557Z,99.99
2018-09-14T01:02:42.530Z,99.99
2018-09-14T01:03:42.550Z,99.99
2018-09-14T01:04:42.573Z,99.99
2018-09-14T01:05:42.596Z,99.99
2018-09-14T01:06:42.615Z,99.99
2018-09-14T01:07:42.634Z,99.99
2018-09-14T01:08:42.659Z,99.99
2018-09-14T01:09:42.677Z,99.99
2018-09-14T01:10:42.702Z,99.99
2018-09-14T01:11:42.728Z,99.99
2018-09-14T01:12:42.745Z,99.99
2018-09-14T01:13:42.772Z,99.99
2018-09-14T01:14:42.792Z,99.99
2018-09-14T01:15:42.810Z,99.99
2018-09-14T01:16:42.830Z,99.99
2018-09-14T01:17:42.855Z,99.99
2018-09-14T01:18:42.877Z,99.99
2018-09-14T01:19:42.897Z,99.99
2018-09-14T01:20:42.915Z,99.99
2018-09-14T01:21:42.943Z,99.99
2018-09-14T01:22:42.964Z,99.99
2018-09-14T01:23:42.984Z,99.99
2018-09-14T01:24:43.004Z,99.99
2018-09-14T01:25:43.029Z,99.99
2018-09-14T01:26:43.048Z,99.99
2018-09-14T01:27:43.068Z,99.99
2018-09-14T01:28:43.092Z,99.99
2018-09-14T01:29:43.108Z,99.99
2018-09-14T01:30:43.137Z,99.99
2018-09-14T01:31:43.158Z,99.99
2018-09-14T01:32:43.180Z,99.99
2018-09-14T01:33:43.198Z,99.99
2018-09-14T01:34:43.266Z,99.99
2018-09-14T01:35:43.243Z,99.99
2018-09-14T01:36:43.264Z,99.99
2018-09-14T01:37:43.286Z,99.99
2018-09-14T01:38:43.308Z,99.99
2018-09-14T01:39:43.330Z,99.99
2018-09-14T01:40:43.354Z,99.99
2018-09-14T01:41:43.382Z,99.99
2018-09-14T01:42:43.398Z,99.99
2018-09-14T01:43:43.418Z,99.99
2018-09-14T01:44:43.447Z,99.99
2018-09-14T01:45:43.463Z,99.99
2018-09-14T01:46:43.486Z,99.99
2018-09-14T01:47:43.500Z,99.99
2018-09-14T01:48:43.523Z,99.99
2018-09-14T01:49:43.549Z,99.99
2018-09-14T01:50:43.568Z,99.99
2018-09-14T01:51:43.585Z,99.99
2018-09-14T01:52:43.610Z,99.99
2018-09-14T01:53:43.639Z,99.99
2018-09-14T01:54:43.668Z,99.99
2018-09-14T01:55:43.693Z,99.99
2018-09-14T01:56:43.698Z,99.99
2018-09-14T01:57:43.718Z,99.99
2018-09-14T01:58:43.740Z,99.99
2018-09-14T01:59:43.766Z,99.99
2018-09-14T02:00:43.782Z,99.99
2018-09-14T02:01:43.803Z,99.99
2018-09-14T02:02:45.328Z,99.99
2018-09-14T02:03:43.848Z,99.99
2018-09-14T02:04:43.873Z,99.99
2018-09-14T02:05:43.892Z,99.99
2018-09-14T02:06:43.914Z,99.99
2018-09-14T02:07:43.938Z,99.99
2018-09-14T02:08:43.958Z,99.99
2018-09-14T02:09:43.979Z,99.99
2018-09-14T02:10:44.001Z,99.99
2018-09-14T02:11:44.019Z,99.99
2018-09-14T02:12:44.043Z,99.99
2018-09-14T02:13:44.064Z,99.99
2018-09-14T02:14:44.092Z,99.99
2018-09-14T02:15:44.108Z,99.99
2018-09-14T02:16:44.124Z,99.99
2018-09-14T02:17:44.152Z,99.99
2018-09-14T02:18:44.177Z,99.99
2018-09-14T02:19:44.191Z,99.99
2018-09-14T02:20:44.212Z,99.99
2018-09-14T02:21:44.233Z,99.99
2018-09-14T02:22:44.266Z,99.99
2018-09-14T02:23:44.273Z,99.99
2018-09-14T02:24:44.296Z,99.99
2018-09-14T02:25:44.393Z,99.99
2018-09-14T02:26:44.341Z,99.99
2018-09-14T02:27:44.368Z,99.99
2018-09-14T02:28:44.387Z,99.99
2018-09-14T02:29:44.403Z,99.99
2018-09-14T02:30:44.427Z,99.99
2018-09-14T02:31:44.452Z,99.99
2018-09-14T02:32:44.465Z,99.99
2018-09-14T02:33:44.489Z,99.99
2018-09-14T02:34:44.522Z,99.99
2018-09-14T02:35:44.534Z,99.99
2018-09-14T02:36:44.556Z,99.99
2018-09-14T02:37:44.576Z,99.99
2018-09-14T02:38:44.595Z,99.99
2018-09-14T02:39:44.620Z,99.99
2018-09-14T02:40:44.642Z,99.99
2018-09-14T02:41:44.666Z,99.99
2018-09-14T02:42:44.683Z,99.99
2018-09-14T02:43:44.702Z,99.99
2018-09-14T02:44:44.724Z,99.99
2018-09-14T02:45:44.750Z,99.99
2018-09-14T02:46:44.766Z,99.99
2018-09-14T02:47:44.786Z,99.99
2018-09-14T02:48:44.810Z,99.99
2018-09-14T02:49:44.833Z,99.99
2018-09-14T02:50:44.856Z,99.99
2018-09-14T02:51:44.872Z,99.99
2018-09-14T02:52:44.896Z,99.99
2018-09-14T02:53:44.916Z,99.99
2018-09-14T02:54:44.944Z,99.99
2018-09-14T02:55:44.961Z,99.99
2018-09-14T02:56:44.985Z,99.99
2018-09-14T02:57:45.000Z,99.99
2018-09-14T02:58:45.022Z,99.99
2018-09-14T02:59:45.045Z,99.99
2018-09-14T03:00:45.066Z,99.99
2018-09-14T03:01:45.088Z,99.99
2018-09-14T03:02:45.113Z,99.99
2018-09-14T03:03:45.130Z,99.99
2018-09-14T03:04:45.157Z,99.99
2018-09-14T03:05:45.168Z,99.99
2018-09-14T03:06:45.192Z,99.99
2018-09-14T03:07:45.215Z,99.99
2018-09-14T03:08:45.234Z,99.99
2018-09-14T03:09:45.255Z,99.99
2018-09-14T03:10:45.277Z,99.99
2018-09-14T03:11:45.296Z,99.99
2018-09-14T03:12:45.318Z,99.99
2018-09-14T03:13:45.341Z,99.99
2018-09-14T03:14:45.369Z,99.99
2018-09-14T03:15:45.384Z,99.99
2018-09-14T03:16:45.416Z,99.99
2018-09-14T03:17:45.429Z,99.99
2018-09-14T03:18:45.444Z,99.99
2018-09-14T03:19:45.467Z,99.99
2018-09-14T03:20:45.489Z,99.99
2018-09-14T03:21:45.503Z,99.99
2018-09-14T03:22:45.528Z,99.99
2018-09-14T03:23:45.550Z,99.99
2018-09-14T03:24:45.568Z,99.99
2018-09-14T03:25:45.593Z,99.99
2018-09-14T03:26:45.618Z,99.99
2018-09-14T03:27:45.635Z,99.99
2018-09-14T03:28:45.658Z,99.99
2018-09-14T03:29:45.674Z,99.99
2018-09-14T03:30:45.696Z,99.99
2018-09-14T03:31:45.715Z,99.99
2018-09-14T03:32:45.742Z,99.99
2018-09-14T03:33:45.760Z,99.99
2018-09-14T03:34:45.782Z,99.99
2018-09-14T03:35:45.799Z,99.99
2018-09-14T03:36:45.822Z,99.99
2018-09-14T03:37:45.840Z,99.99
2018-09-14T03:38:45.865Z,99.99
2018-09-14T03:39:45.885Z,99.99
2018-09-14T03:40:45.901Z,99.99
2018-09-14T03:41:45.928Z,99.99
2018-09-14T03:42:45.947Z,99.99
2018-09-14T03:43:45.965Z,99.99
2018-09-14T03:44:45.989Z,99.99
2018-09-14T03:45:46.014Z,99.99
2018-09-14T03:46:46.029Z,99.99
2018-09-14T03:47:46.053Z,99.99
2018-09-14T03:48:46.073Z,99.99
2018-09-14T03:49:46.095Z,99.99
2018-09-14T03:50:46.112Z,99.99
2018-09-14T03:51:46.132Z,99.99
2018-09-14T03:52:46.154Z,99.99
2018-09-14T03:53:46.179Z,99.99
2018-09-14T03:54:46.200Z,99.99
2018-09-14T03:55:46.211Z,99.99
2018-09-14T03:56:46.237Z,99.99
2018-09-14T03:57:46.263Z,99.99
2018-09-14T03:58:46.281Z,99.99
2018-09-14T03:59:46.297Z,99.99
2018-09-14T04:00:46.324Z,99.99
2018-09-14T04:01:46.341Z,99.99
2018-09-14T04:02:46.364Z,99.99
2018-09-14T04:03:46.384Z,99.99
2018-09-14T04:04:46.407Z,99.99
2018-09-14T04:05:46.421Z,99.99
2018-09-14T04:06:46.451Z,99.99
2018-09-14T04:07:46.605Z,99.99
2018-09-14T04:08:46.491Z,99.99
2018-09-14T04:09:46.507Z,99.99
2018-09-14T04:10:46.525Z,99.99
2018-09-14T04:11:46.548Z,99.99
2018-09-14T04:12:46.567Z,99.99
2018-09-14T04:13:46.587Z,99.99
2018-09-14T04:14:46.611Z,99.99
2018-09-14T04:15:46.633Z,99.99
2018-09-14T04:16:46.657Z,99.99
2018-09-14T04:17:46.673Z,99.99
2018-09-14T04:18:46.691Z,99.99
2018-09-14T04:19:46.710Z,99.99
2018-09-14T04:20:46.730Z,99.99
2018-09-14T04:21:46.754Z,99.99
2018-09-14T04:22:46.777Z,99.99
2018-09-14T04:23:46.827Z,99.99
2018-09-14T04:24:46.817Z,99.99
2018-09-14T04:25:46.840Z,99.99
2018-09-14T04:26:46.857Z,99.99
2018-09-14T04:27:46.880Z,99.99
2018-09-14T04:28:46.896Z,99.99
2018-09-14T04:29:46.924Z,99.99
2018-09-14T04:30:46.939Z,99.99
2018-09-14T04:31:46.961Z,99.99
2018-09-14T04:32:46.983Z,99.99
2018-09-14T04:33:47.002Z,99.99
2018-09-14T04:34:47.023Z,99.99
2018-09-14T04:35:47.051Z,99.99
2018-09-14T04:36:47.066Z,99.99
2018-09-14T04:37:47.086Z,99.99
2018-09-14T04:38:47.099Z,99.99
2018-09-14T04:39:47.125Z,99.99
2018-09-14T04:40:47.146Z,99.99
2018-09-14T04:41:47.190Z,99.99
2018-09-14T04:42:47.188Z,99.99
2018-09-14T04:43:47.204Z,99.99
2018-09-14T04:44:47.227Z,99.99
2018-09-14T04:45:47.250Z,99.99
2018-09-14T04:46:47.266Z,99.99
2018-09-14T04:47:47.291Z,99.99
2018-09-14T04:48:47.312Z,99.99
2018-09-14T04:49:47.324Z,99.99
2018-09-14T04:50:47.354Z,99.99
2018-09-14T04:51:47.371Z,99.99
2018-09-14T04:52:47.393Z,99.99
2018-09-14T04:53:47.419Z,99.99
2018-09-14T04:54:47.433Z,99.99
2018-09-14T04:55:47.456Z,99.99
2018-09-14T04:56:47.479Z,99.99
2018-09-14T04:57:47.495Z,99.99
2018-09-14T04:58:47.516Z,99.99
2018-09-14T04:59:47.540Z,99.99
2018-09-14T05:00:47.562Z,99.99
2018-09-14T05:01:47.580Z,99.99
2018-09-14T05:02:47.604Z,99.99
2018-09-14T05:03:47.620Z,99.99
2018-09-14T05:04:47.640Z,99.99
2018-09-14T05:05:47.655Z,99.99
2018-09-14T05:06:47.679Z,99.99
2018-09-14T05:07:47.708Z,99.99
2018-09-14T05:08:47.716Z,99.99
2018-09-14T05:09:47.749Z,99.99
2018-09-14T05:10:47.757Z,99.99
2018-09-14T05:11:47.780Z,99.99
2018-09-14T05:12:47.800Z,99.99
2018-09-14T05:13:47.827Z,99.99
2018-09-14T05:14:47.843Z,99.99
2018-09-14T05:15:47.865Z,99.99
2018-09-14T05:16:47.886Z,99.99
2018-09-14T05:17:47.913Z,99.99
2018-09-14T05:18:47.931Z,99.99
2018-09-14T05:19:47.948Z,99.99
2018-09-14T05:20:48.020Z,99.99
2018-09-14T05:21:47.988Z,99.99
2018-09-14T05:22:48.009Z,99.99
2018-09-14T05:23:48.118Z,99.99
2018-09-14T05:24:48.048Z,99.99
2018-09-14T05:25:48.070Z,99.99
2018-09-14T05:26:48.097Z,99.99
2018-09-14T05:27:48.111Z,99.99
2018-09-14T05:28:48.133Z,99.99
2018-09-14T05:29:48.159Z,99.99
2018-09-14T05:30:48.173Z,99.99
2018-09-14T05:31:48.194Z,99.99
2018-09-14T05:32:48.214Z,99.99
2018-09-14T05:33:48.238Z,99.99
2018-09-14T05:34:48.258Z,99.99
2018-09-14T05:35:48.279Z,99.99
2018-09-14T05:36:48.298Z,99.99
2018-09-14T05:37:48.319Z,99.99
2018-09-14T05:38:48.343Z,99.99
2018-09-14T05:39:48.381Z,99.99
2018-09-14T05:40:48.382Z,99.99
2018-09-14T05:41:48.414Z,99.99
2018-09-14T05:42:48.425Z,99.99
2018-09-14T05:43:48.445Z,99.99
2018-09-14T05:44:48.466Z,99.99
2018-09-14T05:45:48.543Z,99.99
2018-09-14T05:46:48.508Z,99.99
2018-09-14T05:47:48.531Z,99.99
2018-09-14T05:48:48.552Z,99.99
2018-09-14T05:49:48.570Z,99.99
2018-09-14T05:50:48.592Z,99.99
2018-09-14T05:51:48.610Z,99.99
2018-09-14T05:52:48.633Z,99.99
2018-09-14T05:53:48.659Z,99.99
2018-09-14T05:54:48.677Z,99.99
2018-09-14T05:55:48.696Z,99.99
2018-09-14T05:56:48.721Z,99.99
2018-09-14T05:57:48.735Z,99.99
2018-09-14T05:58:48.760Z,99.99
2018-09-14T05:59:48.776Z,99.99
2018-09-14T06:00:48.800Z,99.99
2018-09-14T06:01:48.823Z,99.99
2018-09-14T06:02:48.840Z,99.99
2018-09-14T06:03:48.867Z,99.99
2018-09-14T06:04:48.893Z,99.99
2018-09-14T06:05:48.905Z,99.99
2018-09-14T06:06:48.929Z,99.99
2018-09-14T06:07:48.957Z,99.99
2018-09-14T06:08:48.974Z,99.99
2018-09-14T06:09:48.988Z,99.99
2018-09-14T06:10:49.008Z,99.99
2018-09-14T06:11:49.032Z,99.99
2018-09-14T06:12:49.053Z,99.99
2018-09-14T06:13:49.085Z,99.99
2018-09-14T06:14:49.098Z,99.99
2018-09-14T06:15:49.132Z,99.99
2018-09-14T06:16:49.137Z,99.99
2018-09-14T06:17:49.153Z,99.99
2018-09-14T06:18:49.181Z,99.99
2018-09-14T06:19:49.211Z,99.99
2018-09-14T06:20:49.226Z,99.99
2018-09-14T06:21:49.248Z,99.99
2018-09-14T06:22:49.322Z,99.99
2018-09-14T06:23:49.286Z,99.99
2018-09-14T06:24:49.302Z,99.99
2018-09-14T06:25:49.328Z,99.99
2018-09-14T06:26:49.347Z,99.99
2018-09-14T06:27:49.369Z,99.99
2018-09-14T06:28:49.388Z,99.99
2018-09-14T06:29:49.415Z,99.99
2018-09-14T06:30:49.431Z,99.99
2018-09-14T06:31:49.448Z,99.99
2018-09-14T06:32:49.475Z,99.99
2018-09-14T06:33:49.498Z,99.99
2018-09-14T06:34:49.516Z,99.99
2018-09-14T06:35:49.539Z,99.99
2018-09-14T06:36:49.557Z,99.99
2018-09-14T06:37:49.582Z,99.99
2018-09-14T06:38:49.601Z,99.99
2018-09-14T06:39:49.675Z,99.99
2018-09-14T06:40:49.690Z,99.99
2018-09-14T06:41:49.664Z,99.99
2018-09-14T06:42:49.691Z,99.99
2018-09-14T06:43:49.707Z,99.99
2018-09-14T06:44:49.727Z,99.99
2018-09-14T06:45:49.746Z,99.99
2018-09-14T06:46:49.761Z,99.99
2018-09-14T06:47:49.786Z,99.99
2018-09-14T06:48:49.809Z,99.99
2018-09-14T06:49:49.829Z,99.99
2018-09-14T06:50:49.857Z,99.99
2018-09-14T06:51:49.872Z,99.99
2018-09-14T06:52:49.895Z,99.99
2018-09-14T06:53:49.915Z,99.99
2018-09-14T06:54:49.939Z,99.99
2018-09-14T06:55:49.951Z,99.99
2018-09-14T06:56:49.981Z,99.99
2018-09-14T06:57:49.991Z,99.99
2018-09-14T06:58:50.021Z,99.99
2018-09-14T06:59:50.044Z,99.99
2018-09-14T07:00:50.062Z,99.99
2018-09-14T07:01:50.080Z,99.99
2018-09-14T07:02:50.106Z,99.99
2018-09-14T07:03:50.130Z,99.99
2018-09-14T07:04:50.152Z,99.99
2018-09-14T07:05:50.171Z,99.99
2018-09-14T07:06:50.189Z,99.99
2018-09-14T07:07:50.213Z,99.99
2018-09-14T07:08:50.229Z,99.99
2018-09-14T07:09:50.263Z,99.99
2018-09-14T07:10:50.273Z,99.99
2018-09-14T07:11:50.293Z,99.99
2018-09-14T07:12:50.321Z,99.99
2018-09-14T07:13:50.337Z,99.99
2018-09-14T07:14:50.355Z,99.99
2018-09-14T07:15:50.385Z,99.99
2018-09-14T07:16:50.403Z,99.99
2018-09-14T07:17:50.423Z,99.99
2018-09-14T07:18:50.443Z,99.99
2018-09-14T07:19:50.463Z,99.99
2018-09-14T07:20:50.485Z,99.99
2018-09-14T07:21:50.675Z,99.99
2018-09-14T07:22:50.531Z,99.99
2018-09-14T07:23:50.553Z,99.99
2018-09-14T07:24:50.788Z,99.99
2018-09-14T07:25:50.597Z,99.99
2018-09-14T07:26:50.638Z,99.99
2018-09-14T07:27:50.654Z,99.99
2018-09-14T07:28:50.775Z,99.99
2018-09-14T07:29:50.689Z,99.99
2018-09-14T07:30:50.787Z,99.99
2018-09-14T07:31:50.862Z,99.99
2018-09-14T07:32:50.743Z,99.99
2018-09-14T07:33:50.769Z,99.99
2018-09-14T07:34:50.789Z,99.99
2018-09-14T07:35:50.806Z,99.99
2018-09-14T07:36:50.829Z,99.99
2018-09-14T07:37:50.852Z,99.99
2018-09-14T07:38:50.877Z,99.99
2018-09-14T07:39:50.899Z,99.99
2018-09-14T07:40:50.916Z,99.99
2018-09-14T07:41:50.954Z,99.99
2018-09-14T07:42:50.965Z,99.99
2018-09-14T07:43:50.993Z,99.99
2018-09-14T07:44:51.144Z,99.99
2018-09-14T07:45:51.039Z,99.99
2018-09-14T07:46:51.258Z,99.99
2018-09-14T07:47:51.492Z,99.99
2018-09-14T07:48:51.245Z,99.99
2018-09-14T07:49:51.106Z,99.99
2018-09-14T07:50:51.165Z,99.99
2018-09-14T07:51:51.467Z,99.99
2018-09-14T07:52:51.321Z,99.99
2018-09-14T07:53:51.189Z,99.99
2018-09-14T07:54:51.943Z,99.99
2018-09-14T07:55:51.263Z,99.99
2018-09-14T07:56:51.457Z,99.99
2018-09-14T07:57:51.278Z,99.99
2018-09-14T07:58:51.301Z,99.99
2018-09-14T07:59:51.343Z,99.99
2018-09-14T08:00:51.355Z,99.99
2018-09-14T08:01:51.565Z,99.99
2018-09-14T08:02:51.384Z,99.99
2018-09-14T08:03:51.433Z,99.99
2018-09-14T08:04:51.443Z,99.99
2018-09-14T08:05:51.865Z,99.99
2018-09-14T08:06:51.676Z,98.62
2018-09-14T08:07:51.524Z,99.99
2018-09-14T08:08:51.667Z,95.46
2018-09-14T08:09:51.691Z,96.70
2018-09-14T08:10:51.659Z,97.95
2018-09-14T08:11:51.810Z,97.38
2018-09-14T08:12:51.950Z,95.51
2018-09-14T08:13:51.712Z,95.56
2018-09-14T08:14:52.215Z,95.46
2018-09-14T08:15:52.029Z,96.66
2018-09-14T08:16:51.695Z,95.31
2018-09-14T08:17:51.865Z,93.59
2018-09-14T08:18:52.158Z,96.66
2018-09-14T08:19:52.013Z,96.47
2018-09-14T08:20:52.834Z,95.41
2018-09-14T08:21:52.153Z,93.78
2018-09-14T08:22:53.625Z,95.51
2018-09-14T08:23:51.891Z,97.33
2018-09-14T08:24:51.870Z,92.73
2018-09-14T08:25:53.154Z,91.39
2018-09-14T08:26:52.837Z,93.59
2018-09-14T08:27:52.090Z,97.90
2018-09-14T08:28:52.678Z,95.31
2018-09-14T08:29:52.075Z,92.63
2018-09-14T08:30:52.459Z,91.19
2018-09-14T08:31:52.842Z,92.25
2018-09-14T08:32:52.367Z,91.96
2018-09-14T08:33:52.522Z,91.39
2018-09-14T08:34:52.202Z,91.29
2018-09-14T08:35:52.594Z,90.53
2018-09-14T08:36:52.959Z,89.80
2018-09-14T08:37:52.958Z,85.45
2018-09-14T08:38:52.529Z,85.16
2018-09-14T08:39:52.479Z,87.74
2018-09-14T08:40:53.030Z,86.79
2018-09-14T08:41:52.247Z,85.83
2018-09-14T08:42:53.669Z,84.30
2018-09-14T08:43:52.289Z,85.45
2018-09-14T08:44:52.353Z,84.72
2018-09-14T08:45:52.361Z,82.57
2018-09-14T08:46:53.516Z,83.63
2018-09-14T08:47:52.867Z,86.64
2018-09-14T08:48:52.478Z,86.45
2018-09-14T08:49:53.830Z,87.79
2018-09-14T08:50:53.716Z,86.35
2018-09-14T08:51:52.490Z,83.95
2018-09-14T08:52:53.309Z,83.76
2018-09-14T08:53:52.656Z,84.44
2018-09-14T08:54:53.127Z,82.71
2018-09-14T08:55:53.887Z,82.62
2018-09-14T08:56:52.932Z,82.52
2018-09-14T08:57:53.496Z,83.95
2018-09-14T08:58:52.646Z,84.63
2018-09-14T08:59:52.643Z,84.63
2018-09-14T09:00:53.450Z,86.45
2018-09-14T09:01:53.867Z,86.16
2018-09-14T09:02:52.793Z,85.82
2018-09-14T09:03:52.903Z,85.88
2018-09-14T09:04:52.774Z,84.44
2018-09-14T09:05:52.988Z,82.32
2018-09-14T09:06:52.927Z,81.89
2018-09-14T09:07:52.848Z,77.09
2018-09-14T09:08:52.895Z,75.18
2018-09-14T09:09:53.623Z,75.04
2018-09-14T09:10:52.949Z,75.33
2018-09-14T09:11:52.977Z,74.31
2018-09-14T09:12:52.993Z,73.55
2018-09-14T09:13:53.811Z,72.88
2018-09-14T09:14:52.989Z,74.31
2018-09-14T09:15:53.005Z,72.78
2018-09-14T09:16:53.077Z,72.11
2018-09-14T09:17:53.207Z,72.88
2018-09-14T09:18:53.104Z,74.22
2018-09-14T09:19:54.176Z,74.98
2018-09-14T09:20:53.148Z,73.93
2018-09-14T09:21:53.171Z,73.07
2018-09-14T09:22:53.191Z,71.63
2018-09-14T09:23:53.186Z,72.49
2018-09-14T09:24:54.792Z,70.29
2018-09-14T09:25:53.246Z,69.71
2018-09-14T09:26:53.251Z,69.23
2018-09-14T09:27:53.312Z,69.33
2018-09-14T09:28:53.356Z,71.63
2018-09-14T09:29:53.322Z,73.07
2018-09-14T09:30:53.681Z,71.63
2018-09-14T09:31:53.453Z,70.38
2018-09-14T09:32:53.401Z,67.99
2018-09-14T09:33:53.458Z,69.23
2018-09-14T09:34:53.476Z,70.76
2018-09-14T09:35:54.753Z,72.33
2018-09-14T09:36:53.520Z,73.00
2018-09-14T09:37:53.564Z,72.91
2018-09-14T09:38:53.575Z,73.20
2018-09-14T09:39:53.591Z,67.73
2018-09-14T09:40:53.617Z,65.05
2018-09-14T09:41:55.041Z,64.56
2018-09-14T09:42:54.085Z,63.70
2018-09-14T09:43:53.755Z,64.66
2018-09-14T09:44:54.434Z,63.70
2018-09-14T09:45:53.766Z,64.18
2018-09-14T09:46:54.316Z,67.06
2018-09-14T09:47:53.750Z,66.29
2018-09-14T09:48:54.061Z,66.00
2018-09-14T09:49:53.833Z,64.95
2018-09-14T09:50:55.327Z,64.18
2018-09-14T09:51:53.842Z,64.56
2018-09-14T09:52:55.756Z,63.99
2018-09-14T09:53:54.826Z,64.09
2018-09-14T09:54:53.912Z,64.37
2018-09-14T09:55:53.974Z,67.16
2018-09-14T09:56:53.947Z,68.88
2018-09-14T09:57:53.955Z,64.95
2018-09-14T09:58:54.030Z,62.36
2018-09-14T09:59:54.858Z,62.16
2018-09-14T10:00:54.062Z,65.17
2018-09-14T10:01:54.082Z,65.36
2018-09-14T10:02:54.174Z,66.71
2018-09-14T10:03:54.139Z,66.80
2018-09-14T10:04:54.144Z,67.67
2018-09-14T10:05:54.595Z,66.71
2018-09-14T10:06:54.206Z,66.23
2018-09-14T10:07:54.187Z,65.56
2018-09-14T10:08:56.059Z,64.40
2018-09-14T10:09:54.252Z,65.36
2018-09-14T10:10:54.280Z,63.35
2018-09-14T10:11:54.944Z,63.35
2018-09-14T10:12:54.369Z,64.69
2018-09-14T10:13:54.399Z,64.79
2018-09-14T10:14:54.418Z,66.23
2018-09-14T10:15:54.375Z,67.19
2018-09-14T10:16:55.623Z,65.75
2018-09-14T10:17:54.427Z,65.08
2018-09-14T10:18:54.478Z,64.12
2018-09-14T10:19:54.468Z,65.94
2018-09-14T10:20:54.727Z,65.65
2018-09-14T10:22:55.615Z,66.23
2018-09-14T10:23:56.080Z,64.63
2018-09-14T10:24:55.405Z,65.59
2018-09-14T10:25:54.646Z,64.72
2018-09-14T10:26:54.901Z,65.30
2018-09-14T10:28:55.664Z,66.16
2018-09-14T10:29:54.700Z,66.16
2018-09-14T10:30:54.781Z,65.59
2018-09-14T10:31:54.763Z,65.01
2018-09-14T10:32:54.805Z,64.82
2018-09-14T10:33:54.917Z,64.92
2018-09-14T10:34:54.905Z,65.88
2018-09-14T10:35:54.876Z,67.70
2018-09-14T10:36:54.908Z,66.00
2018-09-14T10:37:55.129Z,66.10
2018-09-14T10:38:55.772Z,66.10
2018-09-14T10:39:55.703Z,65.46
2018-09-14T10:40:55.086Z,66.33
2018-09-14T10:41:55.059Z,67.29
2018-09-14T10:42:55.140Z,67.77
2018-09-14T10:43:55.036Z,67.10
2018-09-14T10:46:03.804Z,66.55
2018-09-14T10:47:02.757Z,66.36
2018-09-14T10:48:02.913Z,66.94
2018-09-14T10:49:02.725Z,65.11
2018-09-14T10:50:02.841Z,67.03
2018-09-14T10:51:04.282Z,65.50
2018-09-14T10:52:04.199Z,65.53
2018-09-14T10:53:02.900Z,65.14
2018-09-14T10:54:02.870Z,64.95
2018-09-14T10:55:02.933Z,63.73
2018-09-14T10:56:02.907Z,62.41
2018-09-14T10:57:03.637Z,59.39
2018-09-14T10:58:03.016Z,57.90
2018-09-14T10:59:02.983Z,54.61
2018-09-14T11:00:03.098Z,53.96
2018-09-14T11:01:03.069Z,50.82
2018-09-14T11:02:03.632Z,47.77
2018-09-14T11:03:04.554Z,45.89
2018-09-14T11:04:03.173Z,43.05
2018-09-14T11:05:03.196Z,43.49
2018-09-14T11:06:03.210Z,45.85
2018-09-14T11:07:05.276Z,47.89
2018-09-14T11:08:04.711Z,46.60
2018-09-14T11:09:05.977Z,44.17
2018-09-14T11:10:03.748Z,40.91
2018-09-14T11:12:00.993Z,41.45
2018-09-14T11:13:02.917Z,40.13
2018-09-14T11:14:01.865Z,38.87
2018-09-14T11:15:01.234Z,37.78
2018-09-14T11:16:02.128Z,38.39
2018-09-14T11:17:01.413Z,38.81
2018-09-14T11:18:02.393Z,38.64
2018-09-14T11:20:01.293Z,36.32
2018-09-14T11:21:01.295Z,38.64
2018-09-14T11:22:01.281Z,37.95
2018-09-14T11:23:01.397Z,37.02
2018-09-14T11:24:01.382Z,36.69
2018-09-14T11:26:01.451Z,38.70
2018-09-14T11:32:03.926Z,38.64
2018-09-14T11:33:01.309Z,41.64
2018-09-14T11:34:01.332Z,42.92
2018-09-14T11:35:01.881Z,40.31
2018-09-14T11:36:01.373Z,37.52
2018-09-14T11:37:02.101Z,39.34
2018-09-14T11:38:02.739Z,40.25
2018-09-14T11:39:01.458Z,42.49
2018-09-14T11:40:02.199Z,45.25
2018-09-14T11:41:01.608Z,46.25
2018-09-14T11:43:03.244Z,46.29
2018-09-14T11:44:01.688Z,43.47
2018-09-14T11:45:01.743Z,42.89
2018-09-14T11:47:03.235Z,46.00
2018-09-14T11:48:01.971Z,42.13
2018-09-14T11:49:02.654Z,39.67
2018-09-14T11:50:02.524Z,37.39
2018-09-14T11:51:01.885Z,35.00
2018-09-14T11:52:01.981Z,34.71
2018-09-14T11:54:02.076Z,33.77
2018-09-14T11:55:02.025Z,35.81
2018-09-14T11:56:03.795Z,37.60
2018-09-14T11:57:02.423Z,37.14
2018-09-14T11:58:03.867Z,37.06
2018-09-14T11:59:02.156Z,36.88
2018-09-14T12:00:02.152Z,38.75
2018-09-14T12:01:03.911Z,40.91
2018-09-14T12:02:02.219Z,43.55
2018-09-14T12:03:03.613Z,44.96
2018-09-14T12:04:02.995Z,43.19
2018-09-14T12:05:03.429Z,42.02
2018-09-14T12:06:02.402Z,38.60
2018-09-14T12:07:02.401Z,35.53
2018-09-14T12:08:02.448Z,35.47
2018-09-14T12:09:03.707Z,33.65
2018-09-14T12:10:02.631Z,32.42
2018-09-14T12:11:03.639Z,33.59
2018-09-14T12:12:02.552Z,35.49
2018-09-14T12:13:02.645Z,35.52
2018-09-14T12:14:02.821Z,35.73
2018-09-14T12:15:03.709Z,34.68
2018-09-14T12:16:02.860Z,34.42
2018-09-14T12:17:04.552Z,33.62
2018-09-14T12:18:02.764Z,33.65
2018-09-14T12:19:04.015Z,31.39
2018-09-14T12:20:02.866Z,29.79
2018-09-14T12:21:02.911Z,28.16
2018-09-14T12:22:02.901Z,26.53
2018-09-14T12:23:04.481Z,26.58
2018-09-14T12:24:03.178Z,26.52
2018-09-14T12:25:04.261Z,24.87
2018-09-14T12:26:03.122Z,24.07
2018-09-14T12:27:03.083Z,25.10
2018-09-14T12:28:04.106Z,28.82
2018-09-14T12:29:04.091Z,32.34
2018-09-14T12:30:03.233Z,33.62
2018-09-14T12:31:03.260Z,32.18
2018-09-14T12:32:03.270Z,32.47
2018-09-14T12:33:03.385Z,32.13
2018-09-14T12:34:03.423Z,31.26
2018-09-14T12:35:04.370Z,29.77
2018-09-14T12:36:03.456Z,28.12
2018-09-14T12:37:03.452Z,27.15
2018-09-14T12:38:03.489Z,27.39
2018-09-14T12:39:03.507Z,26.52
2018-09-14T12:40:04.236Z,27.25
2018-09-14T12:41:03.579Z,29.35
2018-09-14T12:42:03.704Z,30.66
2018-09-14T12:43:03.643Z,33.58
2018-09-14T12:44:03.693Z,36.30
2018-09-14T12:46:04.851Z,37.15
2018-09-14T12:47:03.819Z,39.41
2018-09-14T12:48:03.899Z,40.92
2018-09-14T12:49:03.915Z,42.24
2018-09-14T12:50:03.994Z,45.40
2018-09-14T12:51:05.527Z,46.17
2018-09-14T12:52:05.306Z,46.30
2018-09-14T12:53:04.379Z,42.26
2018-09-14T12:54:04.023Z,39.55
2018-09-14T12:55:04.101Z,37.77
2018-09-14T12:56:04.147Z,34.39
2018-09-14T12:57:04.182Z,32.76
2018-09-14T12:58:06.227Z,32.24
2018-09-14T12:59:04.523Z,32.45
2018-09-14T13:00:04.719Z,32.76
2018-09-14T13:01:04.520Z,32.47
2018-09-14T13:02:04.351Z,33.75
2018-09-14T13:03:04.357Z,34.43
2018-09-14T13:04:04.360Z,33.01
2018-09-14T13:05:05.328Z,32.16
2018-09-14T13:06:06.034Z,31.07
2018-09-14T13:07:04.942Z,31.02
2018-09-14T13:08:04.539Z,29.70